KAOH/AOH METAR and TAF weather

Enter ICAO airport designator
Station Type Date Time Source
KAOH METAR 2022/06/26 07:53 UTC NOAA

KAOH 260753Z AUTO 19010G17KT 10SM OVC100 26/16 A2998 RMK AO2 SLP144 T02560156


Station Type Date Time Source
KAOH Decoded METAR 2022/06/26 07:53 UTC NOAA

LIMA ALLEN COUNTY AIRPORT, OH, United States (KAOH) 40-42N 84-01W 296M
Jun 26, 2022 - 03:53 AM EDT / 2022.06.26 0753 UTC
Wind: from the S (190 degrees) at 12 MPH (10 KT) gusting to 20 MPH (17 KT):0
Visibility: 10 mile(s):0
Sky conditions: overcast
Temperature: 78.1 F (25.6 C)
Dew Point: 60.1 F (15.6 C)
Relative Humidity: 53%
Pressure (altimeter): 29.98 in. Hg (1015 hPa)
ob: KAOH 260753Z AUTO 19010G17KT 10SM OVC100 26/16 A2998 RMK AO2 SLP144 T02560156
cycle: 8

Station Type Date Time Source
KAOH TAF UTC NOAA

Error!

Example: see airport list